Time;durP1;ratioP1;P1;durP2;ratioP2;P2;SDS_P1;SDS_P2;PMS_P1;PMS_P2;Temp;Humidity;BMP_temperature;BMP_pressure;BME280_temperature;BME280_humidity;BME280_pressure;Samples;Min_cycle;Max_cycle;Signal;HPM_P1;HPM_P2
2021/01/29 00:00:45;;;;;;;20.25;14.07;;;;;;;;;;5115696;28;20429;-47
2021/01/29 00:03:14;;;;;;;17.98;13.63;;;;;;;;;;5106989;28;20037;-51
2021/01/29 00:05:45;;;;;;;18.48;13.93;;;;;;;;;;5090310;28;20275;-48
2021/01/29 00:08:12;;;;;;;17.50;13.40;;;;;;;;;;5074793;28;20455;-47
2021/01/29 00:10:39;;;;;;;19.05;13.73;;;;;;;;;;5096196;28;20044;-60
2021/01/29 00:13:07;;;;;;;18.48;13.57;;;;;;;;;;5086336;28;20041;-50
2021/01/29 00:15:34;;;;;;;17.42;13.95;;;;;;;;;;5091316;28;20047;-51
2021/01/29 00:18:01;;;;;;;20.58;15.35;;;;;;;;;;5095175;28;20047;-50
2021/01/29 00:20:28;;;;;;;20.95;15.85;;;;;;;;;;5095119;28;20443;-47
2021/01/29 00:22:56;;;;;;;21.42;15.60;;;;;;;;;;5091871;28;20055;-48
2021/01/29 00:25:25;;;;;;;17.60;14.57;;;;;;;;;;5089571;28;20055;-48
2021/01/29 00:27:51;;;;;;;18.38;14.75;;;;;;;;;;5115266;28;20366;-50
2021/01/29 00:30:20;;;;;;;21.55;15.05;;;;;;;;;;5078948;28;20036;-51
2021/01/29 00:32:47;;;;;;;19.67;14.43;;;;;;;;;;5074850;28;20040;-51
2021/01/29 00:35:14;;;;;;;18.40;14.25;;;;;;;;;;5087763;28;20346;-50
2021/01/29 00:37:41;;;;;;;20.52;15.25;;;;;;;;;;5095042;28;20040;-47
2021/01/29 00:40:09;;;;;;;19.30;14.80;;;;;;;;;;5094966;28;20055;-49
2021/01/29 00:42:36;;;;;;;19.30;14.43;;;;;;;;;;5113093;28;20354;-48
2021/01/29 00:45:04;;;;;;;18.85;14.95;;;;;;;;;;5096729;28;20043;-51
2021/01/29 00:47:31;;;;;;;18.95;15.02;;;;;;;;;;5098718;28;20367;-48
2021/01/29 00:49:58;;;;;;;18.50;14.70;;;;;;;;;;5080768;28;20039;-48
2021/01/29 00:52:25;;;;;;;21.90;15.90;;;;;;;;;;5098605;28;20354;-51
2021/01/29 00:54:52;;;;;;;21.05;15.63;;;;;;;;;;5080189;28;20078;-48
2021/01/29 00:57:19;;;;;;;19.08;14.60;;;;;;;;;;5098434;28;20051;-51
2021/01/29 01:00:08;;;;;;;18.65;14.80;;;;;;;;;;5097226;28;20055;-56
2021/01/29 01:02:41;;;;;;;19.23;15.10;;;;;;;;;;5080601;28;20040;-54
2021/01/29 01:05:09;;;;;;;19.52;13.85;;;;;;;;;;5080294;28;20040;-50
2021/01/29 01:07:36;;;;;;;17.38;13.88;;;;;;;;;;5080482;28;20048;-66
2021/01/29 01:10:26;;;;;;;16.58;12.60;;;;;;;;;;5081617;28;20036;-49
2021/01/29 01:13:12;;;;;;;19.02;12.98;;;;;;;;;;5077726;28;20083;-49
2021/01/29 01:15:59;;;;;;;17.38;14.38;;;;;;;;;;5078275;28;20566;-49
2021/01/29 01:18:26;;;;;;;19.30;15.23;;;;;;;;;;5078218;28;20048;-47
2021/01/29 01:21:11;;;;;;;19.77;15.05;;;;;;;;;;5064945;28;20044;-48
2021/01/29 01:23:42;;;;;;;17.88;14.63;;;;;;;;;;5059789;28;20052;-53
2021/01/29 01:26:09;;;;;;;17.80;14.25;;;;;;;;;;5060098;28;20040;-55
2021/01/29 01:29:08;;;;;;;16.75;13.80;;;;;;;;;;5054503;28;20435;-50
2021/01/29 01:31:35;;;;;;;18.00;13.45;;;;;;;;;;5066157;28;20048;-53
2021/01/29 01:34:27;;;;;;;17.45;12.75;;;;;;;;;;5075304;28;20033;-49
2021/01/29 01:37:08;;;;;;;15.93;11.98;;;;;;;;;;5059774;28;20036;-48
2021/01/29 01:40:14;;;;;;;16.50;12.50;;;;;;;;;;5077126;28;20048;-50
2021/01/29 01:42:41;;;;;;;15.15;11.45;;;;;;;;;;5097456;28;20050;-50
2021/01/29 01:45:26;;;;;;;15.52;11.77;;;;;;;;;;5117527;28;20438;-50
2021/01/29 01:47:56;;;;;;;15.75;11.70;;;;;;;;;;5117155;28;20035;-50
2021/01/29 01:51:02;;;;;;;16.50;12.45;;;;;;;;;;5014861;28;20045;-49
2021/01/29 01:53:38;;;;;;;15.52;11.75;;;;;;;;;;4998730;28;20050;-50
2021/01/29 01:56:05;;;;;;;14.20;11.45;;;;;;;;;;5054428;28;20055;-48
2021/01/29 01:59:00;;;;;;;13.18;9.73;;;;;;;;;;5113872;28;20047;-48
2021/01/29 02:01:39;;;;;;;13.50;10.13;;;;;;;;;;5092697;28;20386;-54
2021/01/29 02:04:34;;;;;;;13.80;10.52;;;;;;;;;;5076190;28;20047;-51
2021/01/29 02:07:28;;;;;;;15.30;11.07;;;;;;;;;;5075587;28;20458;-52
2021/01/29 02:10:13;;;;;;;12.95;10.48;;;;;;;;;;5089260;28;20074;-52
2021/01/29 02:12:41;;;;;;;13.15;10.70;;;;;;;;;;5079182;28;20053;-49
2021/01/29 02:15:17;;;;;;;14.48;10.93;;;;;;;;;;5058722;28;20040;-51
2021/01/29 02:17:50;;;;;;;14.60;11.18;;;;;;;;;;5092598;28;20032;-48
2021/01/29 02:21:00;;;;;;;15.95;11.52;;;;;;;;;;5092651;28;20473;-51
2021/01/29 02:24:06;;;;;;;15.02;11.35;;;;;;;;;;5092030;28;20052;-49
2021/01/29 02:27:04;;;;;;;15.45;12.10;;;;;;;;;;5099189;28;20036;-48
2021/01/29 02:29:34;;;;;;;19.58;12.15;;;;;;;;;;5098711;28;20036;-50
2021/01/29 02:32:36;;;;;;;17.05;12.07;;;;;;;;;;5099020;28;20039;-49
2021/01/29 02:35:23;;;;;;;14.77;11.75;;;;;;;;;;5013813;28;20054;-54
2021/01/29 02:38:02;;;;;;;16.25;11.80;;;;;;;;;;5104012;28;20036;-49
2021/01/29 02:40:56;;;;;;;16.02;11.52;;;;;;;;;;5097921;28;20358;-49
2021/01/29 02:43:33;;;;;;;14.85;11.07;;;;;;;;;;5098837;28;20434;-51
2021/01/29 02:46:27;;;;;;;16.25;11.65;;;;;;;;;;5115743;28;20035;-49
2021/01/29 02:49:07;;;;;;;18.92;11.02;;;;;;;;;;5078336;28;20327;-49
2021/01/29 02:51:58;;;;;;;14.80;10.93;;;;;;;;;;5096388;28;20051;-49
2021/01/29 02:54:28;;;;;;;17.25;11.25;;;;;;;;;;5091875;28;20048;-49
2021/01/29 02:57:34;;;;;;;15.45;11.75;;;;;;;;;;5065117;28;20040;-51
2021/01/29 03:00:44;;;;;;;14.52;10.60;;;;;;;;;;5040722;28;20036;-50
2021/01/29 03:03:22;;;;;;;14.60;10.32;;;;;;;;;;5057978;28;20037;-55
2021/01/29 03:06:19;;;;;;;15.35;10.85;;;;;;;;;;5057695;28;20051;-49
2021/01/29 03:08:51;;;;;;;12.15;9.60;;;;;;;;;;5058102;28;20068;-49
2021/01/29 03:11:39;;;;;;;12.07;9.95;;;;;;;;;;5094596;28;20070;-49
2021/01/29 03:14:40;;;;;;;14.57;10.25;;;;;;;;;;5103525;28;20047;-48
2021/01/29 03:17:28;;;;;;;11.48;9.45;;;;;;;;;;5116136;28;20039;-51
2021/01/29 03:20:17;;;;;;;13.20;10.00;;;;;;;;;;5115917;28;20040;-48
2021/01/29 03:23:08;;;;;;;14.23;10.30;;;;;;;;;;5097913;28;20044;-50
2021/01/29 03:25:56;;;;;;;14.63;10.38;;;;;;;;;;5075574;28;20036;-55
2021/01/29 03:28:54;;;;;;;13.60;10.93;;;;;;;;;;5044405;28;20044;-49
2021/01/29 03:31:41;;;;;;;13.85;10.98;;;;;;;;;;5075468;28;20047;-49
2021/01/29 03:34:30;;;;;;;13.82;11.07;;;;;;;;;;5094871;28;20054;-54
2021/01/29 03:37:22;;;;;;;16.77;11.70;;;;;;;;;;5095534;28;20036;-50
2021/01/29 03:40:08;;;;;;;15.45;11.50;;;;;;;;;;5095370;28;20047;-49
2021/01/29 03:42:59;;;;;;;14.68;11.05;;;;;;;;;;5075083;28;20039;-50
2021/01/29 03:45:45;;;;;;;16.98;11.52;;;;;;;;;;5075665;28;20037;-49
2021/01/29 03:48:35;;;;;;;13.18;10.52;;;;;;;;;;5075593;28;20051;-51
2021/01/29 03:51:56;;;;;;;15.68;11.23;;;;;;;;;;5094000;28;20477;-50
2021/01/29 03:54:49;;;;;;;15.02;11.50;;;;;;;;;;5013471;28;20065;-50
2021/01/29 03:57:38;;;;;;;14.82;10.90;;;;;;;;;;5095671;28;20059;-49
2021/01/29 04:00:32;;;;;;;13.57;11.25;;;;;;;;;;5104563;28;20850;-49
2021/01/29 04:03:43;;;;;;;14.15;11.32;;;;;;;;;;5034055;28;20040;-52
2021/01/29 04:06:31;;;;;;;14.57;11.07;;;;;;;;;;5075150;28;20049;-52
2021/01/29 04:09:25;;;;;;;15.30;11.40;;;;;;;;;;5046152;28;20039;-49
2021/01/29 04:12:37;;;;;;;14.90;11.10;;;;;;;;;;5058090;28;20039;-52
2021/01/29 04:15:19;;;;;;;11.88;10.52;;;;;;;;;;5091030;28;20044;-53
2021/01/29 04:17:58;;;;;;;13.07;11.05;;;;;;;;;;5097627;28;20032;-49
2021/01/29 04:20:30;;;;;;;18.02;11.48;;;;;;;;;;5100510;28;20040;-48
2021/01/29 04:22:58;;;;;;;14.65;11.55;;;;;;;;;;5099031;28;20367;-49
2021/01/29 04:25:28;;;;;;;15.63;11.57;;;;;;;;;;5099081;28;20048;-49
2021/01/29 04:27:59;;;;;;;15.98;12.30;;;;;;;;;;5099118;28;20465;-49
2021/01/29 04:30:28;;;;;;;15.52;12.52;;;;;;;;;;5100954;28;20040;-49
2021/01/29 04:33:09;;;;;;;16.92;12.32;;;;;;;;;;5119292;28;20043;-51
2021/01/29 04:35:37;;;;;;;16.83;12.68;;;;;;;;;;5119285;28;20035;-50
2021/01/29 04:38:11;;;;;;;18.13;12.25;;;;;;;;;;5119207;28;20039;-48
2021/01/29 04:40:56;;;;;;;16.30;12.05;;;;;;;;;;5118858;28;20059;-50
2021/01/29 04:43:47;;;;;;;16.55;12.95;;;;;;;;;;5118998;28;20361;-48
2021/01/29 04:46:13;;;;;;;18.80;12.45;;;;;;;;;;5119109;28;20039;-50
2021/01/29 04:48:49;;;;;;;16.85;12.30;;;;;;;;;;5118961;28;20047;-48
2021/01/29 04:51:16;;;;;;;16.95;12.30;;;;;;;;;;5118606;28;20074;-48
2021/01/29 04:53:55;;;;;;;16.17;11.60;;;;;;;;;;5118871;28;20078;-52
2021/01/29 04:56:28;;;;;;;16.67;13.55;;;;;;;;;;5118757;28;20350;-50
2021/01/29 04:59:14;;;;;;;14.43;11.57;;;;;;;;;;5118940;28;20042;-49
2021/01/29 05:02:10;;;;;;;12.65;10.20;;;;;;;;;;5081236;28;20046;-48
2021/01/29 05:05:08;;;;;;;13.05;10.10;;;;;;;;;;5067913;28;20055;-51
2021/01/29 05:08:17;;;;;;;12.25;10.05;;;;;;;;;;5069508;28;20047;-48
2021/01/29 05:11:33;;;;;;;12.63;9.90;;;;;;;;;;5075205;28;20472;-48
2021/01/29 05:14:12;;;;;;;11.40;9.85;;;;;;;;;;5118287;28;20039;-49
2021/01/29 05:16:57;;;;;;;12.60;10.25;;;;;;;;;;5118464;28;20048;-50
2021/01/29 05:19:42;;;;;;;13.60;9.93;;;;;;;;;;5118306;28;20485;-50
2021/01/29 05:22:27;;;;;;;14.05;10.05;;;;;;;;;;5118194;28;20044;-52
2021/01/29 05:25:03;;;;;;;13.50;10.60;;;;;;;;;;5118290;28;20438;-48
2021/01/29 05:27:56;;;;;;;13.65;9.98;;;;;;;;;;5104295;28;20047;-53
2021/01/29 05:30:49;;;;;;;12.35;9.95;;;;;;;;;;5115508;27;20054;-46
2021/01/29 05:33:30;;;;;;;13.13;10.20;;;;;;;;;;5105211;28;20044;-52
2021/01/29 05:36:12;;;;;;;13.40;10.48;;;;;;;;;;5097574;28;20074;-52
2021/01/29 05:38:42;;;;;;;14.63;10.73;;;;;;;;;;5108512;28;20042;-48
2021/01/29 05:41:24;;;;;;;16.15;11.57;;;;;;;;;;5117735;28;20477;-48
2021/01/29 05:43:57;;;;;;;15.38;11.43;;;;;;;;;;5117896;28;20039;-49
2021/01/29 05:46:27;;;;;;;14.43;11.82;;;;;;;;;;5118163;28;20049;-48
2021/01/29 05:48:56;;;;;;;14.10;10.98;;;;;;;;;;5117847;28;20039;-47
2021/01/29 05:51:39;;;;;;;16.20;12.05;;;;;;;;;;5103022;28;20055;-47
2021/01/29 05:54:12;;;;;;;15.65;12.45;;;;;;;;;;5096425;28;20481;-48
2021/01/29 05:56:44;;;;;;;14.52;10.40;;;;;;;;;;5097267;28;20047;-47
2021/01/29 05:59:14;;;;;;;16.65;11.65;;;;;;;;;;5097329;28;20040;-48
2021/01/29 06:01:44;;;;;;;13.45;10.02;;;;;;;;;;5106868;28;20050;-47
2021/01/29 06:04:20;;;;;;;13.70;9.95;;;;;;;;;;5105827;28;20040;-50
2021/01/29 06:06:55;;;;;;;15.75;11.20;;;;;;;;;;5097154;28;20044;-58
2021/01/29 06:09:21;;;;;;;15.93;11.75;;;;;;;;;;5097041;28;20048;-51
2021/01/29 06:11:48;;;;;;;12.75;10.43;;;;;;;;;;5108055;28;20050;-47
2021/01/29 06:14:41;;;;;;;11.60;9.77;;;;;;;;;;5112170;28;20043;-47
2021/01/29 06:17:19;;;;;;;15.73;10.55;;;;;;;;;;5096800;28;20043;-48
2021/01/29 06:19:49;;;;;;;12.43;9.80;;;;;;;;;;5096881;28;20032;-46
2021/01/29 06:22:16;;;;;;;12.07;9.63;;;;;;;;;;5110762;28;20048;-49
2021/01/29 06:25:09;;;;;;;11.15;9.43;;;;;;;;;;5117010;28;20040;-48
2021/01/29 06:27:39;;;;;;;11.68;9.07;;;;;;;;;;5096740;28;20070;-48
2021/01/29 06:30:25;;;;;;;11.27;9.43;;;;;;;;;;5096636;28;20450;-48
2021/01/29 06:32:57;;;;;;;13.00;9.50;;;;;;;;;;5112786;28;20050;-50
2021/01/29 06:35:44;;;;;;;14.35;9.98;;;;;;;;;;5096543;28;20048;-50
2021/01/29 06:38:14;;;;;;;14.60;10.60;;;;;;;;;;5096561;28;20063;-48
2021/01/29 06:40:59;;;;;;;12.23;9.85;;;;;;;;;;5097281;28;20082;-59
2021/01/29 06:43:41;;;;;;;11.05;9.63;;;;;;;;;;5116744;28;20044;-49
2021/01/29 06:46:08;;;;;;;12.85;9.65;;;;;;;;;;5116708;28;20382;-47
2021/01/29 06:48:54;;;;;;;15.45;10.20;;;;;;;;;;5116459;28;20045;-50
2021/01/29 06:51:29;;;;;;;14.02;10.02;;;;;;;;;;5116262;28;20381;-47
2021/01/29 06:54:06;;;;;;;14.20;10.50;;;;;;;;;;5101707;28;20059;-48
2021/01/29 06:56:39;;;;;;;11.27;9.38;;;;;;;;;;5096090;28;20056;-50
2021/01/29 06:59:21;;;;;;;12.32;10.23;;;;;;;;;;5096144;28;20477;-47
2021/01/29 07:02:23;;;;;;;15.80;10.97;;;;;;;;;;5104713;28;20047;-47
2021/01/29 07:05:02;;;;;;;14.25;10.52;;;;;;;;;;5033592;28;20045;-50
2021/01/29 07:07:44;;;;;;;14.57;10.27;;;;;;;;;;5107353;28;20031;-48
2021/01/29 07:10:30;;;;;;;14.13;10.30;;;;;;;;;;5101579;28;20044;-50
2021/01/29 07:13:03;;;;;;;12.88;10.40;;;;;;;;;;5113601;28;20265;-51
2021/01/29 07:15:35;;;;;;;14.65;11.15;;;;;;;;;;5095874;28;20114;-48
2021/01/29 07:18:02;;;;;;;;;;;;;;;;;;5096317;28;20040;-48
2021/01/29 07:20:37;;;;;;;13.60;10.10;;;;;;;;;;5095801;28;20246;-47
2021/01/29 07:23:12;;;;;;;12.20;9.13;;;;;;;;;;5110569;28;20081;-48
2021/01/29 07:25:42;;;;;;;12.77;9.90;;;;;;;;;;5095711;28;20052;-51
2021/01/29 07:28:21;;;;;;;11.68;9.88;;;;;;;;;;5095766;28;20047;-49
2021/01/29 07:30:51;;;;;;;11.32;9.27;;;;;;;;;;5095644;28;20067;-48
2021/01/29 07:33:27;;;;;;;13.07;9.88;;;;;;;;;;5115658;28;20036;-50
2021/01/29 07:36:00;;;;;;;14.10;10.27;;;;;;;;;;5062264;28;20047;-49
2021/01/29 07:38:26;;;;;;;;;;;;;;;;;;5096021;28;20051;-47
2021/01/29 07:40:59;;;;;;;14.57;11.52;;;;;;;;;;5098967;28;19919;-50
2021/01/29 07:43:32;;;;;;;12.20;10.52;;;;;;;;;;5095744;28;20435;-47
2021/01/29 07:46:17;;;;;;;17.83;13.20;;;;;;;;;;5095941;28;20054;-48
2021/01/29 07:48:44;;;;;;;17.45;13.30;;;;;;;;;;5095707;28;20048;-48
2021/01/29 07:51:17;;;;;;;17.80;12.27;;;;;;;;;;5096981;28;20070;-47
2021/01/29 07:53:54;;;;;;;14.20;11.45;;;;;;;;;;5104366;28;20059;-49
2021/01/29 07:56:23;;;;;;;13.77;10.50;;;;;;;;;;5095242;28;20443;-48
2021/01/29 07:59:09;;;;;;;13.90;10.98;;;;;;;;;;5095363;28;20044;-49
2021/01/29 08:01:43;;;;;;;12.80;10.65;;;;;;;;;;5100409;28;20054;-48
2021/01/29 08:04:11;;;;;;;13.65;11.45;;;;;;;;;;5115511;28;20377;-48
2021/01/29 08:06:42;;;;;;;16.35;12.45;;;;;;;;;;5115646;28;20043;-48
2021/01/29 08:09:17;;;;;;;17.05;13.15;;;;;;;;;;5115524;28;20043;-48
2021/01/29 08:11:48;;;;;;;14.50;11.02;;;;;;;;;;5114981;28;20468;-48
2021/01/29 08:14:15;;;;;;;14.98;11.65;;;;;;;;;;5115377;28;20044;-50
2021/01/29 08:16:44;;;;;;;17.17;12.35;;;;;;;;;;5115539;28;20393;-48
2021/01/29 08:19:26;;;;;;;15.45;11.77;;;;;;;;;;5115491;28;20319;-49
2021/01/29 08:22:03;;;;;;;15.30;12.52;;;;;;;;;;5115288;28;20221;-49
2021/01/29 08:24:39;;;;;;;17.40;12.80;;;;;;;;;;5114388;28;20386;-48
2021/01/29 08:27:11;;;;;;;18.00;12.45;;;;;;;;;;5115383;28;20114;-47
2021/01/29 08:29:47;;;;;;;14.73;11.57;;;;;;;;;;5115527;28;20442;-48
2021/01/29 08:32:55;;;;;;;15.48;11.02;;;;;;;;;;5101404;28;20044;-49
2021/01/29 08:35:35;;;;;;;14.63;11.50;;;;;;;;;;5097290;28;20109;-49
2021/01/29 08:38:05;;;;;;;14.23;10.50;;;;;;;;;;5106086;28;20367;-50
2021/01/29 08:40:35;;;;;;;13.90;10.82;;;;;;;;;;5095549;28;20439;-48
2021/01/29 08:43:20;;;;;;;12.70;11.00;;;;;;;;;;5114688;28;20035;-48
2021/01/29 08:45:53;;;;;;;13.32;10.70;;;;;;;;;;5115368;28;20058;-48
2021/01/29 08:48:20;;;;;;;;;;;;;;;;;;5115774;28;20043;-48
2021/01/29 08:50:55;;;;;;;14.13;11.23;;;;;;;;;;5115210;28;19912;-48
2021/01/29 08:53:34;;;;;;;15.88;12.18;;;;;;;;;;5114728;28;20039;-49
2021/01/29 08:56:05;;;;;;;15.50;12.30;;;;;;;;;;5115173;28;20043;-51
2021/01/29 08:58:38;;;;;;;14.80;11.90;;;;;;;;;;5115184;28;20032;-47
2021/01/29 09:01:31;;;;;;;16.02;12.75;;;;;;;;;;5115052;28;20047;-48
2021/01/29 09:04:18;;;;;;;19.00;11.88;;;;;;;;;;5100751;28;20040;-48
2021/01/29 09:06:46;;;;;;;15.20;12.57;;;;;;;;;;5057594;28;20446;-47
2021/01/29 09:09:18;;;;;;;14.77;12.63;;;;;;;;;;5098140;28;20051;-48
2021/01/29 09:11:48;;;;;;;18.10;13.98;;;;;;;;;;5108470;28;20040;-50
2021/01/29 09:14:28;;;;;;;16.80;13.40;;;;;;;;;;5118335;28;20114;-47
2021/01/29 09:17:03;;;;;;;19.17;13.85;;;;;;;;;;5118560;28;20051;-49
2021/01/29 09:19:32;;;;;;;16.13;13.77;;;;;;;;;;5118485;28;20051;-48
2021/01/29 09:22:21;;;;;;;17.95;13.40;;;;;;;;;;5116763;28;20051;-55
2021/01/29 09:24:48;;;;;;;20.55;14.73;;;;;;;;;;5097939;28;20443;-54
2021/01/29 09:27:21;;;;;;;19.00;14.80;;;;;;;;;;5097799;28;20435;-54
2021/01/29 09:29:52;;;;;;;18.30;16.05;;;;;;;;;;5097888;28;20047;-53
2021/01/29 09:32:39;;;;;;;8.77;6.32;;;;;;;;;;5105860;28;20350;-49
2021/01/29 09:35:09;;;;;;;19.40;15.07;;;;;;;;;;5106527;28;20047;-48
2021/01/29 09:37:43;;;;;;;15.93;12.70;;;;;;;;;;5097617;28;20036;-48
2021/01/29 09:40:12;;;;;;;16.30;12.50;;;;;;;;;;5097598;28;20059;-50
2021/01/29 09:42:47;;;;;;;18.58;14.68;;;;;;;;;;5115482;28;20066;-50
2021/01/29 09:45:22;;;;;;;22.20;15.85;;;;;;;;;;5117932;28;20039;-49
2021/01/29 09:47:56;;;;;;;20.02;16.55;;;;;;;;;;5117914;28;20032;-52
2021/01/29 09:50:24;;;;;;;18.42;14.98;;;;;;;;;;5117831;28;20046;-50
2021/01/29 09:53:06;;;;;;;19.52;15.30;;;;;;;;;;5110887;28;20043;-51
2021/01/29 09:55:47;;;;;;;18.42;14.85;;;;;;;;;;5117848;28;20055;-53
2021/01/29 09:58:30;;;;;;;17.67;14.68;;;;;;;;;;5117842;28;20050;-50
2021/01/29 10:01:04;;;;;;;26.00;18.33;;;;;;;;;;5099968;28;20043;-58
2021/01/29 10:03:37;;;;;;;22.98;17.02;;;;;;;;;;5100638;28;20043;-50
2021/01/29 10:06:07;;;;;;;20.05;15.13;;;;;;;;;;5097189;28;20098;-48
2021/01/29 10:08:46;;;;;;;18.23;15.13;;;;;;;;;;5096765;28;20039;-53
2021/01/29 10:11:30;;;;;;;20.70;15.77;;;;;;;;;;5103141;28;20047;-50
2021/01/29 10:14:03;;;;;;;19.35;15.32;;;;;;;;;;5096961;28;20043;-51
2021/01/29 10:16:29;;;;;;;;;;;;;;;;;;5097370;28;20114;-49
2021/01/29 10:19:05;;;;;;;21.63;16.35;;;;;;;;;;5096979;28;19939;-50
2021/01/29 10:21:48;;;;;;;18.60;14.45;;;;;;;;;;5096881;28;20044;-49
2021/01/29 10:24:21;;;;;;;28.88;18.42;;;;;;;;;;5108323;28;20036;-50
2021/01/29 10:26:50;;;;;;;4.38;3.47;;;;;;;;;;5096788;28;20059;-50
2021/01/29 10:29:27;;;;;;;22.92;18.23;;;;;;;;;;5096763;28;20051;-50
2021/01/29 10:32:11;;;;;;;26.60;21.30;;;;;;;;;;5099486;28;20058;-48
2021/01/29 10:34:53;;;;;;;30.45;24.17;;;;;;;;;;5114867;28;20043;-49
2021/01/29 10:37:26;;;;;;;27.67;20.23;;;;;;;;;;5096453;28;20044;-50
2021/01/29 10:39:56;;;;;;;25.63;20.10;;;;;;;;;;5096670;28;20036;-50
2021/01/29 10:42:26;;;;;;;26.52;21.17;;;;;;;;;;5103575;28;20047;-49
2021/01/29 10:44:54;;;;;;;24.02;17.65;;;;;;;;;;5116792;28;20382;-49
2021/01/29 10:47:51;;;;;;;7.22;4.90;;;;;;;;;;5116568;28;20043;-50
2021/01/29 10:50:27;;;;;;;20.15;16.05;;;;;;;;;;5091316;28;20051;-49
2021/01/29 10:53:02;;;;;;;27.90;22.50;;;;;;;;;;5106760;28;20054;-50
2021/01/29 10:55:31;;;;;;;28.50;22.27;;;;;;;;;;5116576;28;20047;-50
2021/01/29 10:58:03;;;;;;;31.95;25.30;;;;;;;;;;5116551;28;20031;-49
2021/01/29 11:00:30;;;;;;;;;;;;;;;;;;5117023;28;20046;-50
2021/01/29 11:03:17;;;;;;;29.50;23.80;;;;;;;;;;5114119;28;19908;-49
2021/01/29 11:05:46;;;;;;;22.17;18.48;;;;;;;;;;5116500;28;20035;-49
2021/01/29 11:08:23;;;;;;;27.15;19.77;;;;;;;;;;5116380;28;20039;-50
2021/01/29 11:10:59;;;;;;;24.25;18.42;;;;;;;;;;5115936;28;20046;-50
2021/01/29 11:13:44;;;;;;;21.33;17.35;;;;;;;;;;5115660;28;20039;-51
2021/01/29 11:16:12;;;;;;;20.88;17.35;;;;;;;;;;5116277;28;20048;-49
2021/01/29 11:18:39;;;;;;;22.80;18.25;;;;;;;;;;5116271;28;20050;-49
2021/01/29 11:21:12;;;;;;;21.52;17.15;;;;;;;;;;5116030;28;20070;-49
2021/01/29 11:23:39;;;;;;;21.20;17.83;;;;;;;;;;5115791;28;20043;-50
2021/01/29 11:26:15;;;;;;;24.63;18.13;;;;;;;;;;5115799;28;20042;-49
2021/01/29 11:28:46;;;;;;;23.05;17.88;;;;;;;;;;5116045;28;20043;-49
2021/01/29 11:31:18;;;;;;;20.60;16.40;;;;;;;;;;5116044;28;20040;-50
2021/01/29 11:33:47;;;;;;;22.75;15.95;;;;;;;;;;5115638;28;20394;-49
2021/01/29 11:36:27;;;;;;;21.48;15.55;;;;;;;;;;5095520;28;20044;-49
2021/01/29 11:38:59;;;;;;;22.48;17.38;;;;;;;;;;5095551;28;20354;-50
2021/01/29 11:41:30;;;;;;;24.88;20.70;;;;;;;;;;5103889;28;20028;-51
2021/01/29 11:44:17;;;;;;;25.33;18.25;;;;;;;;;;5115353;28;20046;-49
2021/01/29 11:46:49;;;;;;;27.23;20.30;;;;;;;;;;5115926;28;20061;-50
2021/01/29 11:49:18;;;;;;;23.08;18.95;;;;;;;;;;5109731;28;20040;-49
2021/01/29 11:52:04;;;;;;;25.95;20.27;;;;;;;;;;5095376;28;20047;-50
2021/01/29 11:54:37;;;;;;;22.65;18.60;;;;;;;;;;5095384;28;20051;-50
2021/01/29 11:57:22;;;;;;;21.17;17.27;;;;;;;;;;5095153;28;20052;-49
2021/01/29 11:59:52;;;;;;;21.15;16.85;;;;;;;;;;5095494;28;20044;-49
2021/01/29 12:02:23;;;;;;;21.25;17.15;;;;;;;;;;5098595;28;20357;-50
2021/01/29 12:04:58;;;;;;;19.25;16.52;;;;;;;;;;5115798;28;20039;-49
2021/01/29 12:07:31;;;;;;;21.30;16.83;;;;;;;;;;5115692;28;20047;-49
2021/01/29 12:10:06;;;;;;;18.90;15.88;;;;;;;;;;5115618;28;20043;-50
2021/01/29 12:12:44;;;;;;;20.30;16.73;;;;;;;;;;5114792;28;20051;-50
2021/01/29 12:15:18;;;;;;;23.13;16.77;;;;;;;;;;5099276;28;20051;-51
2021/01/29 12:17:54;;;;;;;18.95;16.17;;;;;;;;;;5095157;28;20048;-49
2021/01/29 12:20:24;;;;;;;17.48;15.60;;;;;;;;;;5095403;28;20043;-51
2021/01/29 12:23:06;;;;;;;17.63;15.02;;;;;;;;;;5102535;28;20040;-51
2021/01/29 12:25:51;;;;;;;19.30;16.15;;;;;;;;;;5115836;28;20036;-52
2021/01/29 12:28:30;;;;;;;19.75;16.30;;;;;;;;;;5115747;28;20040;-50
2021/01/29 12:30:57;;;;;;;21.23;17.13;;;;;;;;;;5115358;28;20043;-48
2021/01/29 12:33:25;;;;;;;22.08;17.85;;;;;;;;;;5115018;28;20044;-48
2021/01/29 12:35:57;;;;;;;21.45;17.08;;;;;;;;;;5115383;28;20050;-50
2021/01/29 12:38:38;;;;;;;20.02;17.33;;;;;;;;;;5115478;28;20047;-51
2021/01/29 12:41:14;;;;;;;24.00;18.70;;;;;;;;;;5118858;28;20047;-50
2021/01/29 12:43:43;;;;;;;23.42;19.05;;;;;;;;;;5116697;28;20389;-53
2021/01/29 12:46:14;;;;;;;27.13;23.15;;;;;;;;;;5098864;28;20048;-50
2021/01/29 12:48:43;;;;;;;26.98;22.95;;;;;;;;;;5098790;28;20047;-50
2021/01/29 12:51:13;;;;;;;30.90;26.95;;;;;;;;;;5098503;28;20043;-52
2021/01/29 12:53:40;;;;;;;35.95;25.80;;;;;;;;;;5110290;28;20054;-51
2021/01/29 12:56:19;;;;;;;36.50;28.63;;;;;;;;;;5107976;27;20051;-41
2021/01/29 12:58:50;;;;;;;37.50;29.42;;;;;;;;;;5098492;28;20480;-41
2021/01/29 13:01:23;;;;;;;37.58;28.98;;;;;;;;;;5106234;28;20050;-43
2021/01/29 13:03:55;;;;;;;35.03;27.27;;;;;;;;;;5114282;28;20068;-45
2021/01/29 13:06:24;;;;;;;35.75;26.35;;;;;;;;;;5102558;28;20040;-44
2021/01/29 13:09:16;;;;;;;34.45;24.25;;;;;;;;;;5098401;28;20051;-45
2021/01/29 13:11:43;;;;;;;30.73;22.98;;;;;;;;;;5108530;28;20043;-45
2021/01/29 13:14:17;;;;;;;29.20;23.10;;;;;;;;;;5118241;28;20457;-44
2021/01/29 13:17:02;;;;;;;27.52;21.45;;;;;;;;;;5118093;27;20369;-43
2021/01/29 13:19:31;;;;;;;27.23;22.50;;;;;;;;;;5104196;28;20032;-44
2021/01/29 13:21:59;;;;;;;28.42;22.10;;;;;;;;;;5097954;28;20036;-44
2021/01/29 13:24:33;;;;;;;30.33;21.48;;;;;;;;;;5117309;28;20047;-43
2021/01/29 13:27:06;;;;;;;27.20;21.17;;;;;;;;;;5106837;28;20036;-43
2021/01/29 13:29:34;;;;;;;;;;;;;;;;;;5098436;28;20055;-44
2021/01/29 13:32:11;;;;;;;28.85;22.10;;;;;;;;;;5097768;28;19908;-43
2021/01/29 13:34:40;;;;;;;27.20;21.52;;;;;;;;;;5117737;28;20039;-45
2021/01/29 13:37:27;;;;;;;26.33;22.00;;;;;;;;;;5097603;28;20438;-43
2021/01/29 13:40:15;;;;;;;26.40;20.88;;;;;;;;;;5097885;28;20059;-51
2021/01/29 13:42:42;;;;;;;28.05;22.73;;;;;;;;;;5116195;28;20446;-43
2021/01/29 13:45:42;;;;;;;27.25;23.73;;;;;;;;;;5118087;28;20046;-43
2021/01/29 13:48:15;;;;;;;29.83;24.60;;;;;;;;;;5073641;28;20433;-45
2021/01/29 13:51:02;;;;;;;28.45;24.10;;;;;;;;;;5117376;28;20043;-43
2021/01/29 13:53:29;;;;;;;28.13;23.38;;;;;;;;;;5076512;28;20050;-49
2021/01/29 13:56:22;;;;;;;32.75;23.00;;;;;;;;;;5117754;28;20054;-43
2021/01/29 13:59:06;;;;;;;31.52;23.17;;;;;;;;;;5117815;28;20070;-43
2021/01/29 14:01:35;;;;;;;27.50;23.38;;;;;;;;;;5117808;28;20039;-43
2021/01/29 14:04:04;;;;;;;24.52;21.40;;;;;;;;;;5117425;28;20377;-44
2021/01/29 14:06:36;;;;;;;26.35;22.27;;;;;;;;;;5117753;28;20050;-48
2021/01/29 14:09:06;;;;;;;28.73;20.98;;;;;;;;;;5117584;28;20058;-45
2021/01/29 14:11:51;;;;;;;28.00;20.90;;;;;;;;;;5112095;28;20047;-44
2021/01/29 14:14:18;;;;;;;25.20;20.55;;;;;;;;;;5113251;28;20520;-43
2021/01/29 14:17:03;;;;;;;27.20;20.40;;;;;;;;;;5117339;28;20044;-43
2021/01/29 14:19:39;;;;;;;25.30;20.10;;;;;;;;;;5096046;28;20461;-42
2021/01/29 14:22:11;;;;;;;27.35;20.65;;;;;;;;;;5096792;28;20062;-43
2021/01/29 14:24:45;;;;;;;28.55;20.05;;;;;;;;;;5116069;28;20047;-44
2021/01/29 14:27:23;;;;;;;26.83;19.58;;;;;;;;;;5117246;28;20051;-52
2021/01/29 14:29:59;;;;;;;23.40;17.98;;;;;;;;;;5114363;28;20043;-46
2021/01/29 14:32:29;;;;;;;21.60;17.70;;;;;;;;;;5116533;28;20039;-46
2021/01/29 14:35:15;;;;;;;23.67;18.65;;;;;;;;;;5117191;28;20047;-43
2021/01/29 14:38:03;;;;;;;24.15;18.83;;;;;;;;;;5117070;28;20069;-43
2021/01/29 14:40:33;;;;;;;24.45;20.27;;;;;;;;;;5116582;28;20058;-55
2021/01/29 14:43:07;;;;;;;26.88;20.27;;;;;;;;;;5105601;28;20052;-45
2021/01/29 14:45:34;;;;;;;;;;;;;;;;;;5096985;28;20036;-51
2021/01/29 14:48:01;;;;;;;27.35;20.02;;;;;;;;;;5110726;28;20310;-43
2021/01/29 14:50:46;;;;;;;29.40;20.48;;;;;;;;;;5116438;28;20453;-42
2021/01/29 14:53:23;;;;;;;27.60;20.83;;;;;;;;;;5097691;28;20036;-44
2021/01/29 14:55:57;;;;;;;24.38;19.02;;;;;;;;;;5096323;28;20036;-45
2021/01/29 14:58:27;;;;;;;23.45;18.05;;;;;;;;;;5096249;28;20051;-45
2021/01/29 15:00:56;;;;;;;23.20;18.50;;;;;;;;;;5101432;28;20046;-46
2021/01/29 15:03:26;;;;;;;151.07;93.93;;;;;;;;;;5115906;28;20036;-42
2021/01/29 15:05:53;;;;;;;177.13;125.35;;;;;;;;;;5116460;28;20039;-57
2021/01/29 15:08:40;;;;;;;40.92;27.90;;;;;;;;;;5097453;28;20046;-44
2021/01/29 15:11:13;;;;;;;30.33;24.30;;;;;;;;;;5102557;28;20043;-44
2021/01/29 15:13:45;;;;;;;52.03;34.35;;;;;;;;;;5116006;28;20042;-45
2021/01/29 15:16:32;;;;;;;40.83;29.42;;;;;;;;;;5116218;28;20050;-54
2021/01/29 15:18:59;;;;;;;36.33;28.08;;;;;;;;;;5116176;28;20046;-51
2021/01/29 15:21:29;;;;;;;33.60;25.85;;;;;;;;;;5115781;28;20039;-42